Time;durP1;ratioP1;P1;durP2;ratioP2;P2;SDS_P1;SDS_P2;PMS_P1;PMS_P2;Temp;Humidity;BMP_temperature;BMP_pressure;BME280_temperature;BME280_humidity;BME280_pressure;Samples;Min_cycle;Max_cycle;Signal;HPM_P1;HPM_P2
2022/01/18 00:00:47;;;;;;;38.97;11.85;;;;;;;4.24;100.00;103810.78;4996721;28;20056;-80
2022/01/18 00:03:12;;;;;;;41.05;11.00;;;;;;;4.21;100.00;103807.31;4996249;28;20022;-83
2022/01/18 00:05:38;;;;;;;44.35;11.00;;;;;;;4.37;100.00;103818.59;4996368;28;20482;-84
2022/01/18 00:08:04;;;;;;;46.47;11.07;;;;;;;4.42;100.00;103819.47;4996545;28;20030;-83
2022/01/18 00:10:32;;;;;;;38.03;10.20;;;;;;;4.44;100.00;103828.06;4996317;28;20062;-80
2022/01/18 00:20:56;;;;;;;;;;;;;;;4.56;100.00;103820.50;4996738;28;20130;-83
2022/01/18 00:23:14;;;;;;;45.45;10.40;;;;;;;4.51;100.00;103820.44;4995555;28;19959;-82
2022/01/18 00:25:43;;;;;;;50.33;10.93;;;;;;;4.50;100.00;103813.59;4996099;28;20058;-83
2022/01/18 00:28:08;;;;;;;43.30;12.68;;;;;;;4.51;100.00;103810.19;4995855;28;20030;-83
2022/01/18 00:35:42;;;;;;;34.40;9.25;;;;;;;4.32;100.00;103782.72;4994719;28;20035;-82
2022/01/18 00:38:29;;;;;;;37.72;10.52;;;;;;;4.47;100.00;103812.72;4995836;28;20466;-81
2022/01/18 00:40:55;;;;;;;37.17;10.65;;;;;;;4.49;100.00;103822.13;4995557;28;20018;-81
2022/01/18 00:43:21;;;;;;;34.88;11.13;;;;;;;4.66;100.00;103852.16;4995937;28;20030;-78
2022/01/18 00:45:46;;;;;;;39.58;11.65;;;;;;;4.66;100.00;103857.28;4995443;28;20121;-83
2022/01/18 00:48:12;;;;;;;39.03;12.05;;;;;;;4.63;100.00;103849.59;4995831;28;20070;-80
2022/01/18 00:50:38;;;;;;;48.78;12.85;;;;;;;4.60;100.00;103848.69;4995763;28;20093;-78
2022/01/18 00:53:09;;;;;;;38.25;11.45;;;;;;;4.49;100.00;103818.72;4995741;28;20442;-84
2022/01/18 00:55:37;;;;;;;41.15;11.80;;;;;;;4.61;100.00;103844.44;4995156;28;20030;-81
2022/01/18 00:58:03;;;;;;;41.30;12.55;;;;;;;4.69;100.00;103865.84;4994033;28;20046;-83
2022/01/18 01:00:28;;;;;;;33.70;11.63;;;;;;;4.62;100.00;103851.25;4995189;28;20042;-83
2022/01/18 01:02:53;;;;;;;47.05;12.85;;;;;;;4.75;100.00;103875.31;4995576;28;20097;-81
2022/01/18 01:05:19;;;;;;;42.33;11.57;;;;;;;4.61;100.00;103849.53;4995583;28;20102;-81
2022/01/18 01:07:44;;;;;;;37.20;12.18;;;;;;;4.52;100.00;103823.84;4995474;28;20018;-82
2022/01/18 01:10:09;;;;;;;37.58;11.43;;;;;;;4.74;100.00;103856.53;4995220;28;20034;-80
2022/01/18 01:12:35;;;;;;;39.45;12.23;;;;;;;4.64;100.00;103839.34;4995334;28;20027;-84
2022/01/18 01:15:08;;;;;;;47.72;13.55;;;;;;;4.66;100.00;103834.25;4994952;28;20061;-76
2022/01/18 01:46:40;;;;;;;43.47;13.48;;;;;;;4.81;100.00;103840.34;4996323;28;20036;-83
2022/01/18 01:49:09;;;;;;;46.10;13.55;;;;;;;4.80;100.00;103827.53;5014441;28;20018;-78
2022/01/18 01:51:34;;;;;;;49.35;13.45;;;;;;;4.85;100.00;103841.25;5014284;28;20068;-72
2022/01/18 01:54:03;;;;;;;46.17;13.10;;;;;;;4.85;100.00;103842.13;5014162;28;20053;-82
2022/01/18 01:56:30;;;;;;;37.63;13.00;;;;;;;4.70;100.00;103808.69;5013991;28;20108;-82
2022/01/18 01:58:57;;;;;;;52.35;13.82;;;;;;;4.82;100.00;103834.41;5013614;28;20477;-81
2022/01/18 02:07:28;;;;;;;41.97;13.90;;;;;;;4.83;100.00;103840.41;5360480;22;20050;-79
2022/01/18 02:09:53;;;;;;;36.92;14.23;;;;;;;4.75;100.00;103837.75;4995945;28;20056;-79
2022/01/18 02:12:19;;;;;;;41.70;15.60;;;;;;;4.63;100.00;103824.00;5013949;28;20030;-79
2022/01/18 02:14:53;;;;;;;41.22;14.75;;;;;;;4.82;100.00;103866.84;5013740;28;20492;-79
2022/01/18 02:22:50;;;;;;;40.65;14.95;;;;;;;4.59;100.00;103823.94;5013844;28;20037;-79
2022/01/18 02:25:15;;;;;;;49.45;15.57;;;;;;;4.74;100.00;103851.41;5013504;28;20026;-79
2022/01/18 02:27:41;;;;;;;38.97;15.98;;;;;;;4.58;100.00;103832.47;5013280;28;20040;-79
2022/01/18 02:30:07;;;;;;;38.50;15.68;;;;;;;4.59;100.00;103823.09;5013543;28;20034;-79
2022/01/18 02:32:32;;;;;;;40.88;15.85;;;;;;;4.71;100.00;103858.19;5013107;28;20033;-79
2022/01/18 02:34:57;;;;;;;44.92;14.82;;;;;;;4.72;100.00;103850.53;5013210;28;20117;-79
2022/01/18 02:37:23;;;;;;;47.33;15.95;;;;;;;4.71;100.00;103851.34;5013123;28;20033;-79
2022/01/18 02:39:48;;;;;;;44.15;16.17;;;;;;;4.70;100.00;103852.19;5013405;28;20033;-79
2022/01/18 02:42:16;;;;;;;42.92;16.08;;;;;;;4.70;100.00;103849.63;5013228;28;20149;-79
2022/01/18 02:44:52;;;;;;;40.42;15.32;;;;;;;4.72;100.00;103847.09;4995284;28;20034;-79
2022/01/18 02:49:48;;;;;;;45.03;15.73;;;;;;;4.72;100.00;103836.84;5011409;28;20046;-79
2022/01/18 02:52:17;;;;;;;41.85;15.60;;;;;;;4.60;100.00;103817.97;5013044;28;20100;-79
2022/01/18 02:54:43;;;;;;;50.33;17.70;;;;;;;4.59;100.00;103818.81;5013069;28;20088;-79
2022/01/18 02:57:14;;;;;;;39.45;15.75;;;;;;;4.58;100.00;103816.25;5013069;28;20101;-79
2022/01/18 02:59:50;;;;;;;40.55;15.55;;;;;;;4.71;100.00;103832.56;5013166;28;20032;-79
2022/01/18 03:05:02;;;;;;;42.00;16.77;;;;;;;4.74;100.00;103838.59;5013145;28;20040;-80
2022/01/18 03:07:28;;;;;;;44.28;16.85;;;;;;;4.62;100.00;103820.53;5013121;28;20057;-79
2022/01/18 03:09:53;;;;;;;44.47;16.35;;;;;;;4.62;100.00;103823.09;5012684;28;20068;-79
2022/01/18 03:12:18;;;;;;;48.95;16.17;;;;;;;4.54;100.00;103809.41;5012892;28;20450;-79
2022/01/18 03:14:44;;;;;;;41.35;16.77;;;;;;;4.60;100.00;103825.66;5012818;28;20037;-79
2022/01/18 03:17:09;;;;;;;49.58;17.33;;;;;;;4.60;100.00;103820.53;5012388;28;20026;-79
2022/01/18 03:19:34;;;;;;;45.03;16.25;;;;;;;4.63;100.00;103824.84;5015718;28;20500;-79
2022/01/18 03:22:00;;;;;;;43.70;16.55;;;;;;;4.78;100.00;103847.16;5018973;28;20026;-79
2022/01/18 03:32:53;;;;;;;48.38;17.40;;;;;;;3.74;100.00;103680.69;5019420;28;20087;-79
2022/01/18 03:35:56;;;;;;;41.78;16.73;;;;;;;4.81;100.00;103849.75;5019144;28;20021;-79
2022/01/18 03:38:29;;;;;;;44.83;17.38;;;;;;;4.80;100.00;103855.72;5019150;28;20030;-79
2022/01/18 03:40:59;;;;;;;50.88;17.33;;;;;;;4.81;100.00;103857.41;5019311;28;20033;-79
2022/01/18 03:43:24;;;;;;;49.72;17.98;;;;;;;4.76;100.00;103846.28;5019361;28;20029;-79
2022/01/18 03:48:54;;;;;;;46.63;18.02;;;;;;;4.77;100.00;103853.97;5016669;28;20050;-79
2022/01/18 03:51:12;;;;;;;57.40;18.48;;;;;;;4.76;100.00;103862.50;5015177;28;20038;-79
2022/01/18 03:56:13;;;;;;;44.97;16.63;;;;;;;4.37;100.00;103793.00;5050107;22;20108;-79
2022/01/18 03:58:38;;;;;;;55.33;18.38;;;;;;;4.75;100.00;103868.47;5019170;28;20046;-79
2022/01/18 04:01:04;;;;;;;54.28;18.30;;;;;;;4.75;100.00;103863.34;5018926;28;20079;-79
2022/01/18 04:03:29;;;;;;;46.30;17.80;;;;;;;4.71;100.00;103858.19;5018929;28;20072;-79
2022/01/18 04:05:56;;;;;;;46.00;17.90;;;;;;;4.76;100.00;103866.78;5018837;28;20026;-79
2022/01/18 04:08:22;;;;;;;44.08;17.27;;;;;;;4.69;100.00;103857.31;5019056;28;20038;-79
2022/01/18 07:22:25;;;;;;;58.83;15.80;;;;;;;3.48;100.00;103799.59;4237956;24;20409;-79
2022/01/18 07:25:11;;;;;;;56.25;15.90;;;;;;;3.08;100.00;103729.19;4769462;30;20075;-79
2022/01/18 07:31:15;;;;;;;57.85;15.93;;;;;;;3.79;100.00;103859.66;4769954;30;20097;-79
2022/01/18 07:33:55;;;;;;;66.07;16.77;;;;;;;4.12;100.00;103906.94;4769577;30;20023;-79
2022/01/18 07:36:35;;;;;;;61.67;17.10;;;;;;;3.51;100.00;103814.94;4769272;30;20036;-79
2022/01/18 07:39:16;;;;;;;50.67;16.53;;;;;;;3.89;100.00;103861.50;4776348;30;20086;-76
2022/01/18 07:41:51;;;;;;;55.00;16.45;;;;;;;3.17;100.00;103742.97;4787884;30;20062;-78
2022/01/18 07:44:16;;;;;;;43.75;13.65;;;;;;;3.61;100.00;103813.38;4787796;30;20027;-78
2022/01/18 07:46:47;;;;;;;57.25;15.95;;;;;;;4.21;100.00;103919.88;4787431;30;20050;-79
2022/01/18 07:52:44;;;;;;;42.97;15.05;;;;;;;4.32;100.00;103937.06;4730656;30;20040;-80
2022/01/18 07:56:18;;;;;;;45.03;13.90;;;;;;;3.21;100.00;103750.66;4732171;30;20130;-78
2022/01/18 08:03:00;;;;;;;43.85;12.93;;;;;;;3.21;100.00;103760.88;4697277;30;20092;-77
2022/01/18 08:05:45;;;;;;;36.28;11.60;;;;;;;3.28;100.00;103753.31;4645934;30;20051;-79
2022/01/18 08:08:19;;;;;;;39.65;12.50;;;;;;;3.54;100.00;103797.13;4649103;30;20126;-78
2022/01/18 08:10:45;;;;;;;37.10;12.00;;;;;;;4.34;100.00;103934.56;4648752;30;20113;-79
2022/01/18 08:19:50;;;;;;;39.30;12.07;;;;;;;3.62;100.00;103799.75;4772741;30;20050;-80
2022/01/18 08:22:41;;;;;;;41.13;12.45;;;;;;;4.53;100.00;103939.06;4772460;30;20122;-79
2022/01/18 08:25:35;;;;;;;35.45;11.27;;;;;;;4.54;100.00;103933.09;4772350;30;20118;-79
2022/01/18 08:28:12;;;;;;;35.45;12.20;;;;;;;3.58;100.00;103775.88;4772197;30;20032;-77
2022/01/18 08:30:56;;;;;;;35.08;13.52;;;;;;;4.38;100.00;103902.19;4771056;30;20396;-79
2022/01/18 08:33:24;;;;;;;39.90;12.25;;;;;;;3.52;100.00;103757.91;4772331;30;20031;-77
2022/01/18 08:36:03;;;;;;;35.60;12.93;;;;;;;4.18;100.00;103861.00;4772305;30;20036;-77
2022/01/18 08:38:46;;;;;;;35.15;11.48;;;;;;;3.62;100.00;103762.28;4771787;30;20105;-78
2022/01/18 08:41:21;;;;;;;35.80;12.13;;;;;;;3.78;100.00;103790.63;4772335;30;20036;-78
2022/01/18 08:44:04;;;;;;;37.42;12.02;;;;;;;3.49;100.00;103742.53;4772023;30;20395;-77
2022/01/18 08:50:04;;;;;;;31.02;11.60;;;;;;;4.26;100.00;103849.19;4771995;30;20054;-77
2022/01/18 08:52:41;;;;;;;29.98;12.35;;;;;;;3.69;100.00;103746.22;4770343;30;20043;-77
2022/01/18 08:55:09;;;;;;;29.58;11.85;;;;;;;4.10;100.00;103825.09;4770613;30;20044;-77
2022/01/18 09:00:26;;;;;;;33.05;12.10;;;;;;;4.49;100.00;103882.69;4780625;24;20067;-77
2022/01/18 09:03:29;;;;;;;34.63;12.63;;;;;;;4.75;100.00;103919.69;4786235;30;20042;-78
2022/01/18 09:06:03;;;;;;;37.20;11.80;;;;;;;3.86;100.00;103771.97;4789692;30;20061;-77
2022/01/18 09:08:28;;;;;;;31.52;12.38;;;;;;;3.95;100.00;103776.34;4789587;29;20147;-76
2022/01/18 09:11:15;;;;;;;34.97;12.93;;;;;;;4.17;100.00;103801.31;4789435;30;20512;-78
2022/01/18 09:17:30;;;;;;;29.17;12.38;;;;;;;4.55;100.00;103858.03;4788861;29;20070;-78
2022/01/18 09:20:30;;;;;;;;;;;;;;;;;;;;;
2022/01/18 09:26:47;;;;;;;31.77;12.90;;;;;;;5.49;99.06;103951.97;4789487;30;20446;-78
2022/01/18 09:30:05;;;;;;;27.90;11.45;;;;;;;5.57;98.52;103957.16;4789295;30;20103;-78
2022/01/18 09:32:33;;;;;;;33.70;14.02;;;;;;;5.30;97.84;103917.63;4789124;30;20036;-78
2022/01/18 09:38:31;;;;;;;31.73;13.75;;;;;;;4.96;98.14;103831.97;4789166;30;20046;-79
2022/01/18 09:41:27;;;;;;;38.35;14.35;;;;;;;5.68;97.97;103951.25;4788920;29;20029;-79
2022/01/18 09:43:52;;;;;;;32.05;14.98;;;;;;;5.01;97.84;103863.59;4806345;29;20385;-79
2022/01/18 09:46:18;;;;;;;35.22;14.75;;;;;;;5.64;98.08;103964.06;4806868;29;20038;-78
2022/01/18 09:52:38;;;;;;;39.22;15.68;;;;;;;5.80;97.96;103963.34;4807313;29;20045;-80
2022/01/18 09:55:13;;;;;;;42.20;15.95;;;;;;;4.73;97.38;103777.16;4806485;29;20035;-80
2022/01/18 10:00:14;;;;;;;40.72;15.80;;;;;;;5.89;97.27;103944.56;5600255;24;20056;-79
2022/01/18 10:02:39;;;;;;;42.85;16.98;;;;;;;6.05;97.21;103966.94;4770531;30;20040;-80
2022/01/18 10:05:22;;;;;;;41.08;17.33;;;;;;;5.89;96.93;103921.47;4770877;30;20036;-79
2022/01/18 10:08:10;;;;;;;37.33;15.82;;;;;;;6.17;96.93;103966.16;4770711;30;20032;-79
2022/01/18 10:10:39;;;;;;;38.22;16.00;;;;;;;6.08;96.51;103958.41;4770503;30;20032;-81
2022/01/18 10:13:05;;;;;;;32.35;16.25;;;;;;;6.14;96.73;103966.16;4770412;30;20089;-81
2022/01/18 10:15:31;;;;;;;36.97;16.45;;;;;;;6.27;96.51;103967.91;4770646;30;20131;-81
2022/01/18 10:44:13;;;;;;;25.52;12.43;;;;;;;6.89;92.95;103923.66;4916309;24;20416;-78
2022/01/18 10:46:43;;;;;;;31.17;13.60;;;;;;;7.13;92.52;103948.53;4787691;30;20063;-80
2022/01/18 10:49:25;;;;;;;29.10;13.45;;;;;;;7.20;92.59;103950.25;4787961;30;20022;-80
2022/01/18 10:51:55;;;;;;;;;;;;;;;7.30;94.00;103943.41;4788393;30;20039;-79
2022/01/18 10:54:34;;;;;;;31.17;13.18;;;;;;;7.14;92.16;103924.53;4787876;30;19914;-80
2022/01/18 10:57:03;;;;;;;32.83;13.00;;;;;;;7.10;91.54;103936.53;4787204;29;20036;-78
2022/01/18 10:59:29;;;;;;;35.13;13.98;;;;;;;7.01;91.74;103923.69;4805771;29;20026;-80
2022/01/18 11:02:23;;;;;;;31.65;13.57;;;;;;;7.04;92.70;103928.81;4805581;29;20031;-79
2022/01/18 11:04:52;;;;;;;35.60;12.88;;;;;;;7.02;91.96;103930.53;4767680;30;20043;-81
2022/01/18 11:07:23;;;;;;;29.73;13.82;;;;;;;7.10;91.77;103927.97;4767776;30;20086;-79
2022/01/18 11:09:49;;;;;;;32.13;14.60;;;;;;;7.05;90.74;103909.09;4767658;30;20048;-79
2022/01/18 11:12:15;;;;;;;30.42;13.32;;;;;;;7.03;90.97;103893.69;4767658;30;20468;-81
2022/01/18 11:14:45;;;;;;;30.10;12.20;;;;;;;7.27;90.59;103923.69;4767313;30;20508;-80
2022/01/18 11:17:24;;;;;;;29.02;11.98;;;;;;;7.14;90.00;103897.13;4767731;30;20476;-79
2022/01/18 11:19:56;;;;;;;33.20;13.82;;;;;;;7.33;90.15;103912.56;4767757;30;20047;-78
2022/01/18 11:23:03;;;;;;;32.67;13.68;;;;;;;7.46;90.72;103917.69;4767559;30;20039;-80
2022/01/18 11:25:44;;;;;;;34.05;13.88;;;;;;;6.41;89.74;103725.00;4731984;30;20049;-79
2022/01/18 11:28:19;;;;;;;32.47;14.53;;;;;;;6.87;89.38;103789.19;4731963;30;20073;-78
2022/01/18 11:42:17;;;;;;;31.17;14.48;;;;;;;7.41;90.41;103909.13;4807133;24;20117;-79
2022/01/18 11:44:50;;;;;;;27.02;12.65;;;;;;;6.23;89.56;103735.25;4773353;30;20048;-79
2022/01/18 11:47:53;;;;;;;33.38;13.00;;;;;;;7.17;90.05;103904.81;4773365;30;20052;-81
2022/01/18 11:50:49;;;;;;;33.42;13.50;;;;;;;7.11;90.48;103897.13;4772999;30;20032;-80
2022/01/18 12:00:12;;;;;;;28.90;9.85;;;;;;;6.95;89.63;103899.69;4773304;30;20054;-78
2022/01/18 12:10:38;;;;;;;29.80;8.63;;;;;;;7.18;88.32;103896.28;5435327;24;20047;-79
2022/01/18 12:20:05;;;;;;;31.58;8.43;;;;;;;6.57;86.89;103770.34;4790934;30;20050;-78
2022/01/18 12:23:17;;;;;;;27.00;8.20;;;;;;;7.32;87.61;103892.84;4790405;30;20055;-79
2022/01/18 12:26:44;;;;;;;24.55;7.75;;;;;;;7.00;87.00;103837.19;4769618;30;20128;-78
2022/01/18 12:53:13;;;;;;;25.85;7.45;;;;;;;7.79;83.42;103859.34;4698897;30;20137;-77
2022/01/18 13:23:00;;;;;;;20.88;6.10;;;;;;;8.51;80.59;103821.28;4664768;30;20045;-83
2022/01/18 14:03:19;;;;;;;24.10;7.30;;;;;;;8.01;80.62;103777.78;4751292;30;20040;-84
2022/01/18 14:06:06;;;;;;;23.88;7.68;;;;;;;7.41;81.02;103702.59;4716045;30;20436;-82
2022/01/18 14:12:33;;;;;;;29.75;8.27;;;;;;;7.79;81.60;103769.31;4716283;30;20418;-83
2022/01/18 14:48:27;;;;;;;;;;;;;;;;;;;;;
2022/01/18 14:51:14;;;;;;;27.98;7.10;;;;;;;7.26;82.50;103726.63;4752220;30;20046;-80
2022/01/18 14:53:46;;;;;;;20.58;7.30;;;;;;;6.82;82.11;103662.50;4752484;30;20044;-82
2022/01/18 15:07:12;;;;;;;21.25;7.60;;;;;;;6.83;84.57;103726.72;4770410;30;20054;-82
2022/01/18 15:23:29;;;;;;;22.50;6.60;;;;;;;6.30;86.40;103704.47;2978253;24;20134;-83
2022/01/18 15:25:55;;;;;;;18.45;7.05;;;;;;;6.04;87.09;103665.09;4787338;30;20122;-82
2022/01/18 15:31:23;;;;;;;25.05;7.55;;;;;;;5.21;87.37;103546.13;4788067;29;20105;-86
2022/01/18 15:34:14;;;;;;;22.67;7.88;;;;;;;4.90;87.70;103509.28;4786270;30;20039;-84
2022/01/18 15:36:42;;;;;;;32.92;9.10;;;;;;;4.95;88.03;103517.00;4787428;30;20132;-84
2022/01/18 16:02:46;;;;;;;25.88;9.38;;;;;;;5.90;90.22;103677.91;4786677;29;20039;-83
2022/01/18 16:18:50;;;;;;;31.80;10.45;;;;;;;5.70;89.96;103611.16;4769403;30;20101;-82
2022/01/18 16:29:32;;;;;;;29.30;9.88;;;;;;;6.22;89.93;103677.09;4808337;29;20121;-80
2022/01/18 16:35:50;;;;;;;28.97;9.87;;;;;;;6.27;89.57;103671.09;4808258;29;20145;-82
2022/01/18 16:38:43;;;;;;;26.67;8.77;;;;;;;6.27;89.86;103676.22;4807831;29;20296;-79
2022/01/18 16:41:16;;;;;;;28.83;8.90;;;;;;;5.21;89.92;103512.81;4806788;29;20500;-81
2022/01/18 16:47:32;;;;;;;25.58;9.27;;;;;;;6.16;90.34;103677.06;4808121;29;20446;-80
2022/01/18 16:50:41;;;;;;;25.00;7.75;;;;;;;6.09;90.39;103673.63;4807569;29;20027;-81
2022/01/18 16:53:35;;;;;;;28.58;9.05;;;;;;;6.02;90.39;103670.22;4807993;29;20381;-80
2022/01/18 16:59:33;;;;;;;27.90;8.50;;;;;;;5.91;90.72;103660.81;4797738;27;20416;-80
2022/01/18 17:02:35;;;;;;;25.05;9.07;;;;;;;5.82;91.04;103659.03;4806399;29;20099;-81
2022/01/18 17:05:13;;;;;;;27.65;8.90;;;;;;;4.70;90.84;103487.88;4807581;29;20046;-81
2022/01/18 17:35:07;;;;;;;27.65;10.23;;;;;;;4.68;92.51;103620.09;5162365;24;20059;-80
2022/01/18 17:41:37;;;;;;;27.08;10.77;;;;;;;5.10;92.97;103674.13;4788930;30;20039;-80
2022/01/18 17:54:48;;;;;;;26.85;10.30;;;;;;;5.20;92.11;103654.53;5531831;24;20059;-81
2022/01/18 17:57:25;;;;;;;28.77;11.93;;;;;;;4.71;92.28;103585.13;4770678;30;20046;-78
2022/01/18 18:00:39;;;;;;;25.55;10.98;;;;;;;3.94;92.15;103443.16;4770786;30;20040;-79
2022/01/18 18:03:29;;;;;;;27.67;11.07;;;;;;;5.25;92.29;103650.31;4770874;30;20028;-79
2022/01/18 18:05:55;;;;;;;26.73;10.52;;;;;;;4.22;91.20;103476.53;4770552;30;20039;-80
2022/01/18 18:08:45;;;;;;;27.85;13.13;;;;;;;5.23;91.79;103644.31;4770711;30;20557;-79
2022/01/18 18:11:59;;;;;;;32.25;14.10;;;;;;;3.97;91.68;103450.81;4754448;30;20114;-80
2022/01/18 18:14:32;;;;;;;29.95;13.70;;;;;;;3.76;91.31;103439.59;4700771;30;20056;-79
2022/01/18 18:31:21;;;;;;;24.55;11.77;;;;;;;4.02;92.53;103604.25;4732864;30;20056;-81
2022/01/18 18:39:47;;;;;;;26.08;10.52;;;;;;;3.55;93.27;103566.34;5070318;24;20125;-82
2022/01/18 18:44:41;;;;;;;29.63;13.00;;;;;;;3.27;93.88;103542.19;4787985;30;20035;-82
2022/01/18 18:47:10;;;;;;;27.80;13.45;;;;;;;3.16;93.96;103543.78;4787343;30;20067;-81
2022/01/18 18:49:38;;;;;;;30.33;12.82;;;;;;;3.27;93.92;103587.31;4787111;30;20046;-79
2022/01/18 18:52:09;;;;;;;30.67;13.15;;;;;;;3.21;94.32;103608.50;4787722;30;20100;-82
2022/01/18 18:54:34;;;;;;;26.45;12.77;;;;;;;2.92;94.28;103572.41;4787868;30;20027;-85
2022/01/18 18:57:00;;;;;;;32.15;13.98;;;;;;;3.01;94.68;103604.84;4787879;30;20524;-80
2022/01/18 19:00:06;;;;;;;30.05;14.93;;;;;;;2.85;94.77;103591.91;4787520;30;20100;-80
2022/01/18 19:02:48;;;;;;;31.85;14.85;;;;;;;3.05;94.91;103630.47;4787595;30;20130;-80
2022/01/18 19:05:16;;;;;;;30.35;15.02;;;;;;;3.16;95.45;103641.66;4786333;30;20403;-81
2022/01/18 19:07:41;;;;;;;32.25;16.70;;;;;;;3.21;95.20;103635.75;4787697;30;20051;-80
2022/01/18 19:10:07;;;;;;;33.90;16.20;;;;;;;3.32;95.21;103641.84;4787617;30;20424;-79
2022/01/18 19:12:32;;;;;;;35.42;18.35;;;;;;;3.41;95.03;103634.28;4787966;30;20479;-79
2022/01/18 19:14:58;;;;;;;39.08;18.95;;;;;;;3.52;94.91;103640.38;4787386;30;20127;-81
2022/01/18 19:17:23;;;;;;;36.72;17.38;;;;;;;3.54;94.82;103631.06;4787577;30;20039;-79
2022/01/18 19:19:54;;;;;;;35.72;18.15;;;;;;;3.59;94.91;103626.84;4787289;30;20082;-81
2022/01/18 19:22:23;;;;;;;32.03;17.13;;;;;;;3.56;94.90;103613.19;4787608;30;20027;-80
2022/01/18 19:24:48;;;;;;;31.83;15.45;;;;;;;3.78;94.91;103645.78;4788932;29;20039;-81
2022/01/18 19:27:13;;;;;;;32.13;15.98;;;;;;;3.84;95.04;103642.44;4804923;29;20525;-80
2022/01/18 19:29:38;;;;;;;33.20;13.48;;;;;;;3.89;95.21;103651.00;4805752;29;20447;-81
2022/01/18 19:32:04;;;;;;;30.75;14.52;;;;;;;3.65;94.88;103609.03;4805554;29;20035;-79
2022/01/18 19:34:31;;;;;;;27.98;14.02;;;;;;;3.90;94.97;103642.50;4805661;29;20031;-80
2022/01/18 19:37:14;;;;;;;30.35;14.13;;;;;;;3.34;95.24;103538.00;4805065;29;20103;-82
2022/01/18 19:39:46;;;;;;;31.02;14.32;;;;;;;3.40;94.77;103548.28;4805480;29;20150;-81
2022/01/18 19:42:14;;;;;;;30.30;13.95;;;;;;;4.01;95.04;103646.84;4788567;29;20130;-81
2022/01/18 19:44:42;;;;;;;37.13;14.20;;;;;;;4.09;95.03;103657.16;4805405;29;20051;-81
2022/01/18 19:47:07;;;;;;;27.33;12.50;;;;;;;4.17;94.68;103654.69;4804839;29;20510;-81
2022/01/18 19:49:32;;;;;;;22.52;10.60;;;;;;;4.10;94.23;103643.53;4805215;29;20061;-83
2022/01/18 19:51:58;;;;;;;24.65;10.57;;;;;;;4.01;94.07;103630.66;4805098;29;20035;-82
2022/01/18 19:54:24;;;;;;;27.27;10.82;;;;;;;4.19;94.49;103651.28;4805285;29;20027;-81
2022/01/18 19:56:53;;;;;;;28.02;12.18;;;;;;;4.18;94.27;103639.34;4773177;29;20047;-80
2022/01/18 20:03:41;;;;;;;28.42;11.27;;;;;;;3.33;93.76;103485.19;4754428;29;20071;-80
2022/01/18 20:06:43;;;;;;;26.08;11.50;;;;;;;4.27;94.31;103624.09;4752833;30;20109;-80
2022/01/18 20:09:15;;;;;;;25.50;11.63;;;;;;;3.42;94.23;103473.38;4683314;30;20038;-80
2022/01/18 20:12:05;;;;;;;28.30;12.18;;;;;;;4.24;94.63;103601.03;4795630;24;20055;-80
2022/01/18 20:14:42;;;;;;;31.77;14.07;;;;;;;3.76;94.37;103516.28;4790441;30;20035;-80
2022/01/18 20:20:09;;;;;;;34.67;16.98;;;;;;;4.22;94.73;103583.94;2920724;24;20150;-81
2022/01/18 20:22:39;;;;;;;35.83;15.55;;;;;;;4.16;94.28;103574.56;4790170;29;20035;-80
2022/01/18 20:25:05;;;;;;;32.13;15.75;;;;;;;4.01;94.74;103557.38;4790502;30;20031;-81
2022/01/18 20:31:04;;;;;;;30.42;14.13;;;;;;;4.22;94.80;103579.69;4780200;29;20042;-80
2022/01/18 20:33:29;;;;;;;27.17;14.30;;;;;;;4.05;94.42;103542.94;4752497;30;20534;-81
2022/01/18 20:35:58;;;;;;;33.92;14.43;;;;;;;3.92;94.63;103520.66;4752247;30;20170;-80
2022/01/18 20:38:23;;;;;;;35.03;13.65;;;;;;;4.25;94.87;103569.50;4929829;24;20115;-80
2022/01/18 20:48:23;;;;;;;30.15;14.68;;;;;;;4.44;94.11;103559.41;4770209;30;20058;-80
2022/01/18 20:51:08;;;;;;;31.00;14.52;;;;;;;3.72;94.43;103436.16;4769935;29;20076;-80
2022/01/18 20:53:39;;;;;;;29.90;14.05;;;;;;;3.30;94.00;103375.38;4769733;30;20035;-81
2022/01/18 20:56:16;;;;;;;30.85;13.68;;;;;;;3.62;94.03;103419.91;4769895;30;20393;-80
2022/01/18 20:58:45;;;;;;;26.73;12.93;;;;;;;4.42;94.13;103558.50;4769752;30;20097;-80
2022/01/18 21:01:20;;;;;;;32.95;13.85;;;;;;;3.15;93.39;103346.34;4769781;30;20149;-81
2022/01/18 21:07:50;;;;;;;31.17;12.77;;;;;;;4.16;94.23;103527.66;4769197;30;20462;-80
2022/01/18 21:10:46;;;;;;;;;;;;;;;4.08;93.98;103517.38;4769891;30;20047;-80
2022/01/18 21:13:15;;;;;;;24.65;11.13;;;;;;;2.67;94.43;103317.81;4769062;30;19926;-81
2022/01/18 21:23:11;;;;;;;22.58;10.98;;;;;;;3.28;95.75;103497.09;4788576;29;20051;-81
2022/01/18 21:29:14;;;;;;;24.05;11.40;;;;;;;2.06;96.26;103360.44;4789624;30;20506;-81
2022/01/18 21:31:52;;;;;;;;;;;;;;;;;;;;;
2022/01/18 21:37:40;;;;;;;25.67;11.98;;;;;;;2.68;97.30;103498.97;4789164;30;20054;-81
2022/01/18 21:46:53;;;;;;;24.30;10.80;;;;;;;0.93;96.08;103277.31;4770948;30;20062;-80
2022/01/18 21:49:19;;;;;;;21.48;11.35;;;;;;;1.36;97.40;103345.88;4770716;30;20039;-79
2022/01/18 21:51:50;;;;;;;24.05;11.73;;;;;;;1.25;97.75;103332.13;4770931;30;20036;-79
2022/01/18 21:54:17;;;;;;;26.20;12.13;;;;;;;1.31;97.42;103341.56;4770749;30;20115;-80
2022/01/18 22:03:28;;;;;;;25.50;12.10;;;;;;;0.70;97.36;103270.16;4759426;30;20049;-79
2022/01/18 22:09:11;;;;;;;26.08;12.73;;;;;;;1.27;97.36;103391.53;4983365;24;20612;-79
2022/01/18 22:11:42;;;;;;;29.33;12.10;;;;;;;0.61;97.04;103270.00;4769413;30;20078;-79
2022/01/18 22:14:14;;;;;;;22.17;11.88;;;;;;;0.67;97.22;103298.06;4770347;30;20478;-79
2022/01/18 22:17:13;;;;;;;23.70;12.75;;;;;;;1.50;96.90;103430.13;4770571;30;20617;-79
2022/01/18 22:19:53;;;;;;;23.33;11.85;;;;;;;0.21;96.77;103226.09;4770601;30;20086;-78
2022/01/18 22:22:49;;;;;;;23.50;11.77;;;;;;;1.31;97.17;103423.88;4770504;30;20104;-80
2022/01/18 22:25:50;;;;;;;23.13;12.30;;;;;;;1.26;97.49;103419.50;4769260;30;20427;-80
2022/01/18 22:28:44;;;;;;;29.58;15.15;;;;;;;0.05;98.80;103213.06;4715216;30;20044;-80
2022/01/18 22:38:34;;;;;;;26.77;13.65;;;;;;;-0.01;97.75;103222.25;4665421;30;20054;-79
2022/01/18 23:52:00;;;;;;;34.72;18.48;;;;;;;0.62;98.32;103115.75;4828382;24;20056;-78
2022/01/18 23:54:53;;;;;;;34.75;17.65;;;;;;;1.94;98.90;103331.41;4790805;29;20148;-79
2022/01/18 23:57:47;;;;;;;34.10;17.35;;;;;;;1.94;98.40;103311.03;4790675;29;20039;-79
